createdAt,value
2018-10-17T00:45:59.930Z,95493.16
2018-10-17T00:51:03.253Z,95499.25
2018-10-17T00:56:06.581Z,95498.45
2018-10-17T02:33:12.159Z,95467.06
2018-10-17T02:38:15.482Z,95463.77
2018-10-17T02:43:18.879Z,95462.11
2018-10-17T03:45:54.587Z,95476.81
2018-10-17T03:50:57.917Z,95480.24
2018-10-17T03:56:02.012Z,95482.30
2018-10-17T04:35:36.528Z,95465.42
2018-10-17T04:40:39.854Z,95469.94
2018-10-17T04:45:43.187Z,95475.38
2018-10-17T04:50:47.284Z,95473.98
2018-10-17T04:55:50.626Z,95470.70
2018-10-17T05:00:53.994Z,95485.06
2018-10-17T05:05:57.302Z,95478.05
2018-10-17T05:11:00.644Z,95477.42
2018-10-17T05:16:03.972Z,95480.44
2018-10-17T05:21:08.064Z,95484.19
2018-10-17T05:26:11.391Z,95487.89
2018-10-17T05:31:14.870Z,95482.41
2018-10-17T05:36:24.051Z,95489.53
2018-10-17T05:41:27.374Z,95489.73
2018-10-17T05:46:30.690Z,95493.20
2018-10-17T05:51:34.019Z,95507.95
2018-10-17T05:56:37.352Z,95514.09
2018-10-17T06:01:40.719Z,95508.68
2018-10-17T06:06:44.037Z,95512.48
2018-10-17T06:11:47.377Z,95516.00
2018-10-17T06:16:51.495Z,95514.68
2018-10-17T06:21:54.833Z,95522.39
2018-10-17T06:26:58.158Z,95528.03
2018-10-17T07:00:55.737Z,95524.00
2018-10-17T07:05:59.115Z,95525.63
2018-10-17T07:11:02.811Z,95530.19
2018-10-17T08:02:07.283Z,95543.25
2018-10-17T08:07:10.618Z,95547.72
2018-10-17T08:12:14.060Z,95546.05
2018-10-17T09:03:18.029Z,95532.54
2018-10-17T09:08:21.401Z,95535.70
2018-10-17T09:13:24.725Z,95541.23
2018-10-17T10:04:30.456Z,95507.72
2018-10-17T10:09:33.792Z,95509.72
2018-10-17T10:14:37.126Z,95505.30
2018-10-17T11:05:42.163Z,95457.23
2018-10-17T11:10:45.401Z,95450.41
2018-10-17T12:01:50.387Z,95408.67
2018-10-17T12:06:53.715Z,95404.13
2018-10-17T12:11:57.128Z,95401.48
2018-10-17T13:03:02.367Z,95372.01
2018-10-17T13:08:06.499Z,95365.56
2018-10-17T13:13:09.856Z,95370.47
2018-10-17T14:04:14.163Z,95343.19
2018-10-17T14:09:17.597Z,95339.77
2018-10-17T14:14:21.610Z,95341.95
2018-10-17T14:48:11.040Z,95322.15
2018-10-17T14:53:14.532Z,95322.95
2018-10-17T14:58:20.544Z,95315.66
2018-10-17T15:32:09.242Z,95321.87
2018-10-17T15:37:12.573Z,95327.05
2018-10-17T15:42:15.917Z,95322.25
2018-10-17T15:47:19.247Z,95326.48
2018-10-17T15:52:22.583Z,95318.65
2018-10-17T15:57:25.910Z,95317.79
2018-10-17T16:02:29.278Z,95319.88
2018-10-17T16:07:33.352Z,95325.95
2018-10-17T16:12:36.694Z,95325.92
2018-10-17T16:17:42.726Z,95325.28
2018-10-17T16:22:46.157Z,95335.44
2018-10-17T16:28:09.379Z,95334.59
2018-10-17T16:33:12.997Z,95342.19
2018-10-17T16:38:20.542Z,95345.28
2018-10-17T16:43:23.879Z,95352.18
2018-10-17T16:48:27.210Z,95350.88
2018-10-17T16:53:30.541Z,95352.15
2018-10-17T16:58:33.969Z,95355.55
2018-10-17T17:03:37.242Z,95358.25
2018-10-17T17:08:40.579Z,95363.05
2018-10-17T17:13:44.695Z,95360.92
2018-10-17T17:18:48.024Z,95362.60
2018-10-17T17:23:52.177Z,95364.63
2018-10-17T17:28:55.483Z,95364.92
2018-10-17T17:33:58.817Z,95368.81
2018-10-17T17:39:02.150Z,95374.13
2018-10-17T17:44:05.483Z,95375.72
2018-10-17T17:49:08.815Z,95378.88
2018-10-17T17:54:12.931Z,95368.83
2018-10-17T17:59:17.019Z,95369.55
2018-10-17T18:04:21.980Z,95375.13
2018-10-17T18:09:25.327Z,95374.27
2018-10-17T18:14:29.445Z,95379.95
2018-10-17T18:19:32.788Z,95384.05
2018-10-17T18:24:36.135Z,95383.56
2018-10-17T18:29:39.472Z,95383.95
2018-10-17T18:34:42.816Z,95388.32
2018-10-17T18:39:46.167Z,95390.30
2018-10-17T18:44:49.557Z,95405.67
2018-10-17T18:49:52.902Z,95400.35
2018-10-17T18:54:56.248Z,95401.87
2018-10-17T18:59:59.632Z,95401.31
2018-10-17T19:05:02.973Z,95408.58
2018-10-17T19:10:06.316Z,95411.48
2018-10-17T19:15:09.684Z,95413.52
2018-10-17T19:20:13.016Z,95420.13
2018-10-17T19:25:16.389Z,95420.97
2018-10-17T19:30:20.455Z,95416.16
2018-10-17T19:35:23.794Z,95425.59
2018-10-17T19:40:27.123Z,95434.52
2018-10-17T19:45:30.480Z,95441.27
2018-10-17T19:50:33.822Z,95437.97
2018-10-17T19:55:37.924Z,95440.84
2018-10-17T20:00:41.267Z,95443.55
2018-10-17T20:05:45.372Z,95446.70
2018-10-17T20:10:48.706Z,95443.87
2018-10-17T20:15:52.801Z,95452.52
2018-10-17T20:20:56.150Z,95439.09
2018-10-17T20:26:00.315Z,95447.72
2018-10-17T20:31:03.658Z,95438.38
2018-10-17T20:36:06.989Z,95437.38
2018-10-17T20:41:10.331Z,95437.95
2018-10-17T20:46:14.426Z,95441.73
2018-10-17T20:51:17.781Z,95435.09
2018-10-17T20:56:21.947Z,95442.27
2018-10-17T21:01:25.990Z,95443.05
2018-10-17T21:06:29.327Z,95440.12
2018-10-17T21:11:34.358Z,95437.05
2018-10-17T21:16:37.543Z,95440.14
2018-10-17T21:21:40.880Z,95437.86
2018-10-17T21:26:44.240Z,95446.23
2018-10-17T21:31:48.327Z,95442.08
2018-10-17T21:36:51.670Z,95441.58
2018-10-17T21:41:55.786Z,95436.48
2018-10-17T21:46:59.147Z,95435.34
2018-10-17T21:52:02.478Z,95436.73
2018-10-17T21:57:05.808Z,95446.94
2018-10-17T22:02:09.250Z,95437.03
2018-10-17T22:07:12.519Z,95439.45
2018-10-17T22:12:15.846Z,95437.52
2018-10-17T22:17:21.110Z,95442.16
2018-10-17T22:22:24.454Z,95442.56
2018-10-17T22:27:28.547Z,95441.72
2018-10-17T22:32:31.882Z,95445.55
2018-10-17T22:37:35.217Z,95445.95
2018-10-17T22:42:39.307Z,95451.84
2018-10-17T22:47:42.650Z,95444.73
2018-10-17T22:52:45.996Z,95445.84
2018-10-17T22:57:49.343Z,95445.33
2018-10-17T23:02:53.035Z,95443.83
2018-10-17T23:08:22.211Z,95445.89
2018-10-17T23:13:26.319Z,95450.56
